createdAt,value
2023-01-29T00:02:21.601Z,79.82
2023-01-29T00:05:28.114Z,79.43
2023-01-29T00:08:31.142Z,80.22
2023-01-29T00:11:33.933Z,81.22
2023-01-29T00:14:36.328Z,80.00
2023-01-29T00:17:39.029Z,79.84
2023-01-29T00:20:43.922Z,80.06
2023-01-29T00:23:47.209Z,79.50
2023-01-29T00:26:50.384Z,79.07
2023-01-29T00:30:09.281Z,79.16
2023-01-29T00:33:13.519Z,79.27
2023-01-29T00:36:18.224Z,78.85
2023-01-29T00:39:31.352Z,79.21
2023-01-29T00:42:54.996Z,79.95
2023-01-29T00:45:57.526Z,80.32
2023-01-29T00:49:03.281Z,81.19
2023-01-29T00:52:24.055Z,80.81
2023-01-29T00:55:26.707Z,81.34
2023-01-29T00:58:34.244Z,81.81
2023-01-29T01:01:55.835Z,82.23
2023-01-29T01:04:58.317Z,82.32
2023-01-29T01:08:00.992Z,82.93
2023-01-29T01:11:06.519Z,83.13
2023-01-29T01:14:09.696Z,82.89
2023-01-29T01:17:12.120Z,83.29
2023-01-29T01:20:15.364Z,83.48
2023-01-29T01:23:19.470Z,84.13
2023-01-29T01:26:23.536Z,84.16
2023-01-29T01:29:25.887Z,84.12
2023-01-29T01:32:28.813Z,84.25
2023-01-29T01:35:31.344Z,84.45
2023-01-29T01:38:34.078Z,84.65
2023-01-29T01:41:36.611Z,84.72
2023-01-29T01:44:54.833Z,84.61
2023-01-29T01:48:19.745Z,84.89
2023-01-29T01:51:26.353Z,84.98
2023-01-29T01:54:32.399Z,84.82
2023-01-29T01:57:36.372Z,84.26
2023-01-29T02:00:39.824Z,84.44
2023-01-29T02:04:09.327Z,84.21
2023-01-29T02:07:34.080Z,84.47
2023-01-29T02:10:42.710Z,84.52
2023-01-29T02:13:45.872Z,84.60
2023-01-29T02:16:48.380Z,84.36
2023-01-29T02:20:10.583Z,84.24
2023-01-29T02:23:44.406Z,84.50
2023-01-29T02:27:14.271Z,84.39
2023-01-29T02:30:28.629Z,84.11
2023-01-29T02:33:46.408Z,84.24
2023-01-29T02:36:56.060Z,84.09
2023-01-29T02:40:29.725Z,84.05
2023-01-29T02:43:45.585Z,84.70
2023-01-29T02:47:06.723Z,84.51
2023-01-29T02:50:09.070Z,84.78
2023-01-29T02:53:19.784Z,84.89
2023-01-29T02:56:29.375Z,85.10
2023-01-29T02:59:40.928Z,84.79
2023-01-29T03:02:49.141Z,84.68
2023-01-29T03:06:06.437Z,84.69
2023-01-29T03:09:22.499Z,84.17
2023-01-29T03:12:34.040Z,83.70
2023-01-29T03:15:47.497Z,82.99
2023-01-29T03:19:05.400Z,82.07
2023-01-29T03:22:10.124Z,81.17
2023-01-29T03:25:34.644Z,81.11
2023-01-29T03:28:58.308Z,79.83
2023-01-29T03:32:04.435Z,79.81
2023-01-29T03:35:09.960Z,78.90
2023-01-29T03:38:12.823Z,78.97
2023-01-29T03:41:25.285Z,78.21
2023-01-29T03:44:31.167Z,77.87
2023-01-29T03:47:44.116Z,77.50
2023-01-29T03:51:02.439Z,76.96
2023-01-29T03:54:18.443Z,77.26
2023-01-29T03:57:56.190Z,76.85
2023-01-29T04:01:09.217Z,76.70
2023-01-29T04:04:18.960Z,76.82
2023-01-29T04:07:24.632Z,76.74
2023-01-29T04:10:32.280Z,76.60
2023-01-29T04:13:36.290Z,76.62
2023-01-29T04:16:44.858Z,76.70
2023-01-29T04:19:48.525Z,76.84
2023-01-29T04:22:52.456Z,76.61
2023-01-29T04:26:16.792Z,76.50
2023-01-29T04:29:43.829Z,76.33
2023-01-29T04:33:29.397Z,76.03
2023-01-29T04:37:19.869Z,76.31
2023-01-29T04:40:37.716Z,75.97
2023-01-29T04:43:44.403Z,76.03
2023-01-29T04:46:52.837Z,75.65
2023-01-29T04:50:08.751Z,76.10
2023-01-29T04:53:15.604Z,76.03
2023-01-29T04:56:29.694Z,76.14
2023-01-29T04:59:57.545Z,75.92
2023-01-29T05:03:01.854Z,75.93
2023-01-29T05:06:05.790Z,75.70
2023-01-29T05:09:09.956Z,75.38
2023-01-29T05:12:16.414Z,75.36
2023-01-29T05:15:29.371Z,75.37
2023-01-29T05:18:32.666Z,75.28
2023-01-29T05:21:35.395Z,74.90
2023-01-29T05:24:38.034Z,74.83
2023-01-29T05:27:59.850Z,74.68
2023-01-29T05:31:02.669Z,75.24
2023-01-29T05:34:05.459Z,74.95
2023-01-29T05:37:09.388Z,74.92
2023-01-29T05:40:12.450Z,74.78
2023-01-29T05:43:22.846Z,74.54
2023-01-29T05:46:25.640Z,74.79
2023-01-29T05:49:28.322Z,74.41
2023-01-29T05:52:31.038Z,74.60
2023-01-29T05:55:33.495Z,74.28
2023-01-29T05:58:36.321Z,74.02
2023-01-29T06:01:41.659Z,73.73
2023-01-29T06:04:44.383Z,73.91
2023-01-29T06:07:47.106Z,73.85
2023-01-29T06:10:49.788Z,73.77
2023-01-29T06:13:52.277Z,73.75
2023-01-29T06:16:54.961Z,73.81
2023-01-29T06:19:57.296Z,74.02
2023-01-29T06:23:00.139Z,73.78
2023-01-29T06:26:05.937Z,73.70
2023-01-29T06:29:11.487Z,73.54
2023-01-29T06:32:13.943Z,73.50
2023-01-29T06:35:16.846Z,73.52
2023-01-29T06:38:19.188Z,73.37
2023-01-29T06:41:25.397Z,73.58
2023-01-29T06:44:27.956Z,73.51
2023-01-29T06:47:30.696Z,73.27
2023-01-29T06:50:33.103Z,73.40
2023-01-29T06:53:37.548Z,73.28
2023-01-29T06:56:39.964Z,73.20
2023-01-29T06:59:42.964Z,73.78
2023-01-29T07:02:45.382Z,73.44
2023-01-29T07:05:52.989Z,73.35
2023-01-29T07:08:55.739Z,73.26
2023-01-29T07:11:58.504Z,73.03
2023-01-29T07:15:00.922Z,72.94
2023-01-29T07:18:05.503Z,73.00
2023-01-29T07:21:08.204Z,72.60
2023-01-29T07:24:11.042Z,72.64
2023-01-29T07:27:15.898Z,72.61
2023-01-29T07:30:19.001Z,72.39
2023-01-29T07:33:21.687Z,72.18
2023-01-29T07:36:24.628Z,72.09
2023-01-29T07:39:27.024Z,71.91
2023-01-29T07:42:29.769Z,71.94
2023-01-29T07:45:34.572Z,71.59
2023-01-29T07:48:37.335Z,71.26
2023-01-29T07:51:39.643Z,71.07
2023-01-29T07:54:42.332Z,70.36
2023-01-29T07:57:44.743Z,70.71
2023-01-29T08:00:47.476Z,70.79
2023-01-29T08:03:51.423Z,70.42
2023-01-29T08:06:53.873Z,70.37
2023-01-29T08:09:56.521Z,70.04
2023-01-29T08:13:01.178Z,69.91
2023-01-29T08:16:04.801Z,69.98
2023-01-29T08:19:07.211Z,69.91
2023-01-29T08:22:10.008Z,69.69
2023-01-29T08:25:13.690Z,70.06
2023-01-29T08:28:16.504Z,69.62
2023-01-29T08:31:23.275Z,69.88
2023-01-29T08:34:26.055Z,69.66
2023-01-29T08:37:28.484Z,69.74
2023-01-29T08:40:34.076Z,69.55
2023-01-29T08:43:39.909Z,68.93
2023-01-29T08:46:42.618Z,68.83
2023-01-29T08:49:45.092Z,68.73
2023-01-29T08:52:51.777Z,68.18
2023-01-29T08:55:54.253Z,67.59
2023-01-29T08:58:58.352Z,67.28
2023-01-29T09:02:01.635Z,67.37
2023-01-29T09:05:04.774Z,67.81
2023-01-29T09:08:08.296Z,68.03
2023-01-29T09:11:11.391Z,67.77
2023-01-29T09:14:14.780Z,68.04
2023-01-29T09:17:17.564Z,68.15
2023-01-29T09:20:20.326Z,68.25
2023-01-29T09:23:23.260Z,68.14
2023-01-29T09:26:25.718Z,68.28
2023-01-29T09:29:28.568Z,68.61
2023-01-29T09:33:04.895Z,68.52
2023-01-29T09:35:53.779Z,68.96
2023-01-29T09:38:56.183Z,68.74
2023-01-29T09:42:23.088Z,68.62
2023-01-29T09:45:29.757Z,68.45
2023-01-29T09:48:36.529Z,68.69
2023-01-29T09:51:43.501Z,69.05
2023-01-29T09:55:07.543Z,69.35
2023-01-29T09:58:28.264Z,69.43
2023-01-29T10:01:39.298Z,69.77
2023-01-29T10:05:13.287Z,70.42
2023-01-29T10:08:24.491Z,70.85
2023-01-29T10:11:27.063Z,71.78
2023-01-29T10:14:38.056Z,71.50
2023-01-29T10:17:50.557Z,71.29
2023-01-29T10:20:58.887Z,71.14
2023-01-29T10:24:34.780Z,71.65
2023-01-29T10:27:41.327Z,71.31
2023-01-29T10:30:54.908Z,71.43
2023-01-29T10:34:05.003Z,69.83
2023-01-29T10:37:40.977Z,69.86
2023-01-29T10:40:56.103Z,69.64
2023-01-29T10:44:21.002Z,69.65
2023-01-29T10:47:40.613Z,69.41
2023-01-29T10:51:01.187Z,69.54
2023-01-29T10:54:18.785Z,69.37
2023-01-29T10:57:53.402Z,68.49
2023-01-29T11:00:56.482Z,68.59
2023-01-29T11:04:13.076Z,68.68
2023-01-29T11:07:19.552Z,68.30
2023-01-29T11:10:24.007Z,68.45
2023-01-29T11:13:32.780Z,68.23
2023-01-29T11:16:44.438Z,68.17
2023-01-29T11:19:48.712Z,67.94
2023-01-29T11:22:55.779Z,68.36
2023-01-29T11:25:59.838Z,68.08
2023-01-29T11:29:02.488Z,68.28
2023-01-29T11:32:14.144Z,68.02
2023-01-29T11:35:16.811Z,67.67
2023-01-29T11:38:25.496Z,67.98
2023-01-29T11:41:28.319Z,67.87
2023-01-29T11:44:39.784Z,67.94
2023-01-29T11:47:50.517Z,67.87
2023-01-29T11:50:57.465Z,68.19
2023-01-29T11:54:04.356Z,67.30
2023-01-29T11:57:30.217Z,67.62
2023-01-29T12:00:36.006Z,67.28
2023-01-29T12:03:46.172Z,67.39
2023-01-29T12:06:52.707Z,67.84
2023-01-29T12:09:59.702Z,67.97
2023-01-29T12:13:11.080Z,67.48
2023-01-29T12:16:36.800Z,67.18
2023-01-29T12:19:46.401Z,66.58
2023-01-29T12:23:08.852Z,66.30
2023-01-29T12:26:16.162Z,66.49
2023-01-29T12:29:48.268Z,66.52
2023-01-29T12:33:01.222Z,66.21
2023-01-29T12:36:21.975Z,65.66
2023-01-29T12:39:24.456Z,65.37
2023-01-29T12:42:27.829Z,65.29
2023-01-29T12:45:32.995Z,64.87
2023-01-29T12:48:42.798Z,64.49
2023-01-29T12:52:15.575Z,64.82
2023-01-29T12:55:27.258Z,65.03
2023-01-29T12:58:38.127Z,65.03
2023-01-29T13:01:52.653Z,65.08
2023-01-29T13:05:21.148Z,64.33
2023-01-29T13:08:39.576Z,64.67
2023-01-29T13:11:51.349Z,64.87
2023-01-29T13:15:05.617Z,64.83
2023-01-29T13:18:35.900Z,64.81
2023-01-29T13:21:42.405Z,64.73
2023-01-29T13:24:55.465Z,65.08
2023-01-29T13:28:17.103Z,64.67
2023-01-29T13:31:35.612Z,64.94
2023-01-29T13:34:48.946Z,65.00
2023-01-29T13:37:54.912Z,64.60
2023-01-29T13:41:02.013Z,64.72
2023-01-29T13:44:20.706Z,64.63
2023-01-29T13:47:37.184Z,64.83
2023-01-29T13:50:43.001Z,64.85
2023-01-29T13:54:07.666Z,64.84
2023-01-29T13:57:56.682Z,65.01
2023-01-29T14:01:02.653Z,64.86
2023-01-29T14:04:28.319Z,65.24
2023-01-29T14:07:50.117Z,65.54
2023-01-29T14:11:17.746Z,65.74
2023-01-29T14:14:47.763Z,65.77
2023-01-29T14:18:02.419Z,65.71
2023-01-29T14:21:20.052Z,65.75
2023-01-29T14:24:29.675Z,65.96
2023-01-29T14:27:33.006Z,66.18
2023-01-29T14:30:41.256Z,66.04
2023-01-29T14:33:44.763Z,66.23
2023-01-29T14:36:55.302Z,65.97
2023-01-29T14:40:07.683Z,66.20
2023-01-29T14:43:20.111Z,66.32
2023-01-29T14:46:34.345Z,66.22
2023-01-29T14:49:54.749Z,66.40
2023-01-29T14:53:19.833Z,65.85
2023-01-29T14:56:40.936Z,66.34
2023-01-29T14:59:57.068Z,65.69
2023-01-29T15:03:02.581Z,65.80
2023-01-29T15:06:08.062Z,66.06
2023-01-29T15:09:16.518Z,66.07
2023-01-29T15:12:27.852Z,66.30
2023-01-29T15:15:54.492Z,66.46
2023-01-29T15:19:12.431Z,66.09
2023-01-29T15:22:22.377Z,66.89
2023-01-29T15:25:25.598Z,66.99
2023-01-29T15:28:34.437Z,67.37
2023-01-29T15:31:37.020Z,67.52
2023-01-29T15:34:43.890Z,67.45
2023-01-29T15:37:59.132Z,67.50
2023-01-29T15:41:04.673Z,67.54
2023-01-29T15:44:16.703Z,67.24
2023-01-29T15:47:22.743Z,66.98
2023-01-29T15:50:25.362Z,67.07
2023-01-29T15:53:44.419Z,67.22
2023-01-29T15:56:49.715Z,68.07
2023-01-29T15:59:56.260Z,68.30
2023-01-29T16:03:00.761Z,68.34
2023-01-29T16:06:03.949Z,68.32
2023-01-29T16:09:07.890Z,68.31
2023-01-29T16:12:13.133Z,68.33
2023-01-29T16:15:23.839Z,68.69
2023-01-29T16:18:36.543Z,68.80
2023-01-29T16:21:45.999Z,69.05
2023-01-29T16:24:53.292Z,69.11
2023-01-29T16:27:56.102Z,69.04
2023-01-29T16:31:03.887Z,68.81
2023-01-29T16:34:29.300Z,68.97
2023-01-29T16:37:35.809Z,68.93
2023-01-29T16:40:40.851Z,68.88
2023-01-29T16:43:48.022Z,69.11
2023-01-29T16:46:53.632Z,69.87
2023-01-29T16:50:19.165Z,69.62
2023-01-29T16:53:24.581Z,69.76
2023-01-29T16:56:31.690Z,69.86
2023-01-29T16:59:38.127Z,70.52
2023-01-29T17:02:40.859Z,70.86
2023-01-29T17:05:43.766Z,71.09
2023-01-29T17:08:46.786Z,71.31
2023-01-29T17:11:56.085Z,71.79
2023-01-29T17:15:05.148Z,71.60
2023-01-29T17:18:17.179Z,71.21
2023-01-29T17:21:19.901Z,70.84
2023-01-29T17:24:22.669Z,71.25
2023-01-29T17:27:26.537Z,71.32
2023-01-29T17:30:33.930Z,70.97
2023-01-29T17:33:41.232Z,71.31
2023-01-29T17:36:44.677Z,70.55
2023-01-29T17:39:50.645Z,70.44
2023-01-29T17:42:53.090Z,70.76
2023-01-29T17:45:55.847Z,70.57
2023-01-29T17:48:58.312Z,70.57
2023-01-29T17:52:00.981Z,70.59
2023-01-29T17:55:03.472Z,70.72
2023-01-29T17:58:09.181Z,70.88
2023-01-29T18:01:11.616Z,70.90
2023-01-29T18:04:14.927Z,70.48
2023-01-29T18:07:17.373Z,70.38
2023-01-29T18:10:21.762Z,70.58
2023-01-29T18:13:24.601Z,70.97
2023-01-29T18:16:27.531Z,71.06
2023-01-29T18:19:31.766Z,71.16
2023-01-29T18:22:34.584Z,71.40
2023-01-29T18:25:37.824Z,71.16
2023-01-29T18:28:43.454Z,71.89
2023-01-29T18:31:48.465Z,72.20
2023-01-29T18:34:51.311Z,72.35
2023-01-29T18:37:53.787Z,72.68
2023-01-29T18:41:04.086Z,72.88
2023-01-29T18:44:06.654Z,73.10
2023-01-29T18:47:09.462Z,73.55
2023-01-29T18:50:12.286Z,73.40
2023-01-29T18:53:15.136Z,73.41
2023-01-29T18:56:17.763Z,73.68
2023-01-29T18:59:20.579Z,74.07
2023-01-29T19:02:23.374Z,74.37
2023-01-29T19:05:26.253Z,74.63
2023-01-29T19:08:31.569Z,74.53
2023-01-29T19:11:34.356Z,75.07
2023-01-29T19:14:36.859Z,75.24
2023-01-29T19:17:39.557Z,75.56
2023-01-29T19:20:42.380Z,75.79
2023-01-29T19:23:45.064Z,76.07
2023-01-29T19:26:47.562Z,76.38
2023-01-29T19:29:51.058Z,76.83
2023-01-29T19:32:54.796Z,77.33
2023-01-29T19:35:58.573Z,77.51
2023-01-29T19:39:00.956Z,77.56
2023-01-29T19:42:05.898Z,77.90
2023-01-29T19:45:08.958Z,78.15
2023-01-29T19:48:11.793Z,78.31
2023-01-29T19:51:14.699Z,78.37
2023-01-29T19:54:17.498Z,78.73
2023-01-29T19:57:19.995Z,78.79
2023-01-29T20:00:22.816Z,78.98
2023-01-29T20:03:26.791Z,79.18
2023-01-29T20:06:32.812Z,79.00
2023-01-29T20:09:35.541Z,79.04
2023-01-29T20:12:38.318Z,78.75
2023-01-29T20:15:46.051Z,78.89
2023-01-29T20:18:48.831Z,79.31
2023-01-29T20:21:51.728Z,79.32
2023-01-29T20:24:54.438Z,79.29
2023-01-29T20:27:57.255Z,79.30
2023-01-29T20:31:00.067Z,79.34
2023-01-29T20:34:03.022Z,79.38
2023-01-29T20:37:07.413Z,79.40
2023-01-29T20:40:11.222Z,79.82
2023-01-29T20:43:13.692Z,80.40
2023-01-29T20:46:16.603Z,80.80
2023-01-29T20:49:19.349Z,81.59
2023-01-29T20:52:22.012Z,81.89
2023-01-29T20:55:24.791Z,82.41
2023-01-29T20:58:27.607Z,82.49
2023-01-29T21:01:30.117Z,83.18
2023-01-29T21:04:32.780Z,83.05
2023-01-29T21:07:36.215Z,83.08
2023-01-29T21:10:39.095Z,83.62
2023-01-29T21:13:42.652Z,83.85
2023-01-29T21:16:45.458Z,83.86
2023-01-29T21:19:47.971Z,83.53
2023-01-29T21:22:50.771Z,83.12
2023-01-29T21:25:53.264Z,83.58
2023-01-29T21:28:56.056Z,83.26
2023-01-29T21:31:58.612Z,83.59
2023-01-29T21:35:01.482Z,83.30
2023-01-29T21:38:04.869Z,83.46
2023-01-29T21:41:10.010Z,83.33
2023-01-29T21:44:12.671Z,83.56
2023-01-29T21:47:15.452Z,83.63
2023-01-29T21:50:18.269Z,82.89
2023-01-29T21:53:23.336Z,83.09
2023-01-29T21:56:25.781Z,83.29
2023-01-29T21:59:28.547Z,82.72
2023-01-29T22:02:32.233Z,82.89
2023-01-29T22:05:35.181Z,82.71
2023-01-29T22:08:37.587Z,83.10
2023-01-29T22:11:41.668Z,83.07
2023-01-29T22:14:44.794Z,83.27
2023-01-29T22:17:47.567Z,83.42
2023-01-29T22:20:57.004Z,83.51
2023-01-29T22:23:59.750Z,83.47
2023-01-29T22:27:02.103Z,83.37
2023-01-29T22:30:05.895Z,83.53
2023-01-29T22:33:08.411Z,83.68
2023-01-29T22:36:11.157Z,83.90
2023-01-29T22:39:13.512Z,84.07
2023-01-29T22:42:19.277Z,84.15
2023-01-29T22:45:21.698Z,84.33
2023-01-29T22:48:24.443Z,84.27
2023-01-29T22:51:26.975Z,84.53
2023-01-29T22:54:29.754Z,84.73
2023-01-29T22:57:32.251Z,84.68
2023-01-29T23:00:35.026Z,84.96
2023-01-29T23:03:37.507Z,85.12
2023-01-29T23:06:40.202Z,85.10
2023-01-29T23:09:42.695Z,85.30
2023-01-29T23:12:45.515Z,85.47
2023-01-29T23:15:59.443Z,85.57
2023-01-29T23:19:02.261Z,85.72
2023-01-29T23:22:04.808Z,85.71
2023-01-29T23:25:07.909Z,85.60
2023-01-29T23:28:10.745Z,85.63
2023-01-29T23:31:14.038Z,85.44
2023-01-29T23:34:16.625Z,85.39
2023-01-29T23:37:19.335Z,85.50
2023-01-29T23:40:21.707Z,85.30
2023-01-29T23:43:28.629Z,85.43
2023-01-29T23:46:31.640Z,84.87
2023-01-29T23:49:34.533Z,84.56
2023-01-29T23:52:36.990Z,82.58
2023-01-29T23:55:39.635Z,82.99
2023-01-29T23:58:42.128Z,82.43
